Terminal Aerodrome Forecast
Issued by NWS Wakefield, VA

Home | Current Version | Previous Version | Text Only | Print | Product List | Glossary On
Versions: 1 2 3 4 5 6 7 8 9 10 11 12 13 14 15
000
FTUS41 KAKQ 271700
TAFORF
TAF
KORF 271738Z 2718/2818 21007KT P6SM SCT250
     FM272200 19003KT P6SM SCT150
     FM280400 21006KT P6SM BKN100
     FM281400 23009KT P6SM BKN080 OVC150=

USA.gov is the U.S. government's official web portal to all federal, state and local government web resources and services.